Time;durP1;ratioP1;P1;durP2;ratioP2;P2;SDS_P1;SDS_P2;PMS_P1;PMS_P2;Temp;Humidity;BMP_temperature;BMP_pressure;BME280_temperature;BME280_humidity;BME280_pressure;Samples;Min_cycle;Max_cycle;Signal;HPM_P1;HPM_P2
2022/08/19 00:01:14;;;;;;;11.48;8.60;;;;;;;27.24;57.96;100612.19;5111819;27;99422;-70
2022/08/19 00:03:40;;;;;;;9.30;8.32;;;;;;;26.96;59.17;100611.63;5111989;27;96970;-70
2022/08/19 00:06:07;;;;;;;9.50;8.52;;;;;;;26.82;59.72;100612.19;5108076;27;96803;-70
2022/08/19 00:08:34;;;;;;;11.13;9.43;;;;;;;26.91;59.80;100619.38;5101832;27;99864;-71
2022/08/19 00:11:01;;;;;;;16.15;9.32;;;;;;;26.85;59.87;100613.72;5106460;27;98617;-70
2022/08/19 00:13:28;;;;;;;12.90;9.27;;;;;;;26.89;59.38;100623.28;5111841;27;96918;-70
2022/08/19 00:15:55;;;;;;;10.55;8.90;;;;;;;26.80;60.08;100616.06;5114149;27;96889;-70
2022/08/19 00:18:21;;;;;;;10.25;9.30;;;;;;;27.11;59.09;100611.81;5110175;27;98908;-70
2022/08/19 00:20:48;;;;;;;10.35;8.85;;;;;;;27.34;58.04;100618.34;5113003;27;98106;-70
2022/08/19 00:23:14;;;;;;;9.88;8.88;;;;;;;27.23;58.29;100628.66;5113909;27;97034;-71
2022/08/19 00:25:42;;;;;;;10.60;9.07;;;;;;;27.29;58.17;100626.13;5111754;27;96983;-71
2022/08/19 00:28:08;;;;;;;11.77;9.15;;;;;;;27.69;56.96;100619.13;5107466;27;98937;-71
2022/08/19 00:30:35;;;;;;;10.05;9.00;;;;;;;27.91;56.59;100623.03;5111915;27;97566;-70
2022/08/19 00:33:01;;;;;;;10.25;8.85;;;;;;;28.04;55.86;100621.50;5109663;27;96849;-72
2022/08/19 00:35:28;;;;;;;11.05;9.65;;;;;;;27.94;55.52;100618.13;5110187;27;98400;-71
2022/08/19 00:37:55;;;;;;;10.35;9.20;;;;;;;27.29;57.74;100631.56;5109668;27;97891;-71
2022/08/19 00:40:21;;;;;;;10.73;9.07;;;;;;;27.31;57.54;100623.25;5111139;27;99237;-71
2022/08/19 00:42:51;;;;;;;10.60;9.45;;;;;;;27.14;58.36;100616.94;5111992;27;96918;-71
2022/08/19 00:45:25;;;;;;;10.15;9.15;;;;;;;27.04;58.04;100616.22;5113823;27;97584;-72
2022/08/19 00:47:51;;;;;;;12.07;8.90;;;;;;;27.28;57.07;100602.72;5105717;27;99152;-70
2022/08/19 00:50:20;;;;;;;10.85;8.75;;;;;;;27.55;56.16;100601.66;5110949;27;99150;-70
2022/08/19 00:52:49;;;;;;;9.95;8.95;;;;;;;27.76;55.55;100603.88;5109386;27;97644;-71
2022/08/19 00:55:21;;;;;;;10.80;9.25;;;;;;;27.75;55.75;100608.47;5110310;27;96842;-73
2022/08/19 00:57:52;;;;;;;10.65;9.18;;;;;;;27.73;55.25;100604.19;5106135;27;100894;-71
2022/08/19 01:00:20;;;;;;;15.82;8.68;;;;;;;27.96;55.04;100607.94;5112060;27;99266;-71
2022/08/19 01:02:46;;;;;;;13.60;10.00;;;;;;;27.81;55.34;100608.78;5112859;27;96865;-72
2022/08/19 01:05:18;;;;;;;13.07;9.95;;;;;;;27.90;55.63;100613.19;5111187;27;96817;-71
2022/08/19 01:07:45;;;;;;;16.35;10.68;;;;;;;28.05;56.32;100616.94;5110542;27;99188;-71
2022/08/19 01:10:21;;;;;;;11.13;9.35;;;;;;;28.00;56.33;100606.59;5107458;27;98259;-70
2022/08/19 01:12:49;;;;;;;;;;;;;;;27.76;56.52;100612.03;5112938;27;96974;-73
2022/08/19 01:15:20;;;;;;;10.52;9.25;;;;;;;27.84;55.81;100617.44;5111861;27;96862;-70
2022/08/19 01:17:49;;;;;;;12.68;9.23;;;;;;;27.71;56.81;100617.09;5109190;27;100519;-73
2022/08/19 01:20:18;;;;;;;11.27;8.35;;;;;;;27.67;56.54;100623.88;5111121;27;98960;-71
2022/08/19 01:22:48;;;;;;;12.82;9.52;;;;;;;27.64;57.82;100625.03;5111941;27;96820;-70
2022/08/19 01:25:16;;;;;;;10.60;9.15;;;;;;;27.61;57.70;100628.13;5110277;27;96908;-71
2022/08/19 01:27:44;;;;;;;12.60;9.35;;;;;;;27.68;57.59;100629.16;5111663;27;99424;-70
2022/08/19 01:30:15;;;;;;;13.50;8.63;;;;;;;27.75;57.34;100626.59;5111536;27;101907;-70
2022/08/19 01:32:43;;;;;;;12.52;8.10;;;;;;;27.87;56.86;100629.84;5112290;27;96943;-70
2022/08/19 01:35:10;;;;;;;12.95;9.30;;;;;;;27.89;57.12;100636.81;5110421;27;97183;-70
2022/08/19 01:37:48;;;;;;;10.73;9.18;;;;;;;27.84;57.56;100641.03;5109312;27;98987;-71
2022/08/19 01:40:14;;;;;;;10.23;9.05;;;;;;;27.93;56.72;100646.31;5108959;27;99461;-71
2022/08/19 01:42:41;;;;;;;10.98;9.13;;;;;;;27.75;57.62;100641.03;5114393;27;96745;-72
2022/08/19 01:45:08;;;;;;;14.65;9.68;;;;;;;27.92;57.33;100632.88;5115124;27;96831;-71
2022/08/19 01:47:36;;;;;;;12.07;9.50;;;;;;;27.91;57.40;100642.03;5111722;27;98031;-71
2022/08/19 01:50:03;;;;;;;13.40;9.35;;;;;;;27.97;56.71;100636.78;5115598;27;97840;-71
2022/08/19 01:52:30;;;;;;;11.65;10.07;;;;;;;27.85;56.94;100640.00;5112359;27;97180;-71
2022/08/19 01:54:58;;;;;;;14.73;10.43;;;;;;;27.73;57.95;100639.50;5114821;27;97518;-72
2022/08/19 01:57:24;;;;;;;10.75;9.63;;;;;;;27.80;58.00;100659.53;5113343;27;101787;-70
2022/08/19 01:59:51;;;;;;;14.10;10.65;;;;;;;27.73;58.27;100655.78;5112959;27;101825;-70
2022/08/19 02:02:17;;;;;;;18.15;11.48;;;;;;;27.17;60.69;100651.03;5114481;27;96889;-71
2022/08/19 02:04:47;;;;;;;13.07;9.68;;;;;;;26.93;60.14;100658.00;5114239;27;98670;-71
2022/08/19 02:07:14;;;;;;;11.48;9.43;;;;;;;26.96;59.94;100641.44;5113461;27;99005;-72
2022/08/19 02:09:40;;;;;;;13.13;9.85;;;;;;;27.17;59.79;100638.31;5114176;27;99074;-71
2022/08/19 02:12:09;;;;;;;13.00;10.82;;;;;;;27.16;59.84;100625.75;5113828;27;97576;-71
2022/08/19 02:14:35;;;;;;;14.40;10.73;;;;;;;27.15;59.89;100610.50;5114833;27;96804;-71
2022/08/19 02:17:02;;;;;;;11.55;9.88;;;;;;;27.26;59.88;100591.19;5113068;27;98837;-72
2022/08/19 02:19:29;;;;;;;13.82;10.00;;;;;;;26.52;61.38;100575.59;5110458;27;101672;-71
2022/08/19 02:21:55;;;;;;;13.57;10.50;;;;;;;26.50;62.13;100552.41;5115040;27;96977;-71
2022/08/19 02:24:21;;;;;;;15.40;10.30;;;;;;;26.66;62.19;100529.94;5111148;27;96978;-71
2022/08/19 02:26:48;;;;;;;11.45;10.13;;;;;;;26.96;60.62;100529.41;5112711;27;98920;-70
2022/08/19 02:29:15;;;;;;;12.18;10.05;;;;;;;26.67;61.67;100526.22;5113811;27;100197;-71
2022/08/19 02:31:42;;;;;;;12.27;9.88;;;;;;;26.19;63.04;100511.38;5114507;27;96793;-70
2022/08/19 02:34:08;;;;;;;16.23;10.13;;;;;;;26.41;62.22;100524.41;5113659;27;97065;-71
2022/08/19 02:36:35;;;;;;;10.85;8.63;;;;;;;25.89;63.73;100525.41;5112413;27;97901;-71
2022/08/19 02:39:00;;;;;;;12.52;9.75;;;;;;;25.65;64.54;100535.06;5112275;27;99530;-70
2022/08/19 02:41:30;;;;;;;12.55;9.73;;;;;;;25.78;64.31;100524.66;5114184;27;96850;-71
2022/08/19 02:43:58;;;;;;;13.43;10.35;;;;;;;25.89;64.09;100531.66;5115015;27;96882;-71
2022/08/19 02:46:30;;;;;;;13.85;10.77;;;;;;;26.18;63.85;100515.97;5113926;27;97767;-70
2022/08/19 02:48:58;;;;;;;11.75;9.90;;;;;;;26.30;62.94;100526.56;5112842;27;99397;-71
2022/08/19 02:51:27;;;;;;;12.43;10.55;;;;;;;26.08;62.79;100515.22;5112255;27;96834;-71
2022/08/19 02:53:55;;;;;;;15.20;11.30;;;;;;;26.08;62.80;100509.81;5113497;27;97344;-71
2022/08/19 02:56:22;;;;;;;12.00;10.75;;;;;;;26.13;62.37;100528.28;5113412;27;101157;-73
2022/08/19 02:58:49;;;;;;;13.13;10.40;;;;;;;26.35;61.89;100535.91;5110691;27;98880;-70
2022/08/19 03:01:21;;;;;;;12.57;10.18;;;;;;;26.45;61.46;100543.91;5112836;27;96817;-70
2022/08/19 03:03:50;;;;;;;14.25;11.25;;;;;;;26.53;61.24;100552.06;5111625;27;96980;-70
2022/08/19 03:06:19;;;;;;;13.10;10.52;;;;;;;26.73;60.72;100544.53;5114183;27;101147;-70
2022/08/19 03:08:49;;;;;;;14.63;10.70;;;;;;;26.61;60.74;100543.97;5111092;27;99841;-70
2022/08/19 03:11:16;;;;;;;18.30;14.95;;;;;;;26.53;60.70;100541.22;5113517;27;96787;-70
2022/08/19 03:13:43;;;;;;;19.58;16.33;;;;;;;26.63;60.50;100539.25;5114139;27;96885;-70
2022/08/19 03:16:10;;;;;;;23.45;19.30;;;;;;;26.44;60.80;100543.06;5114163;27;100146;-71
2022/08/19 03:18:37;;;;;;;24.42;17.27;;;;;;;26.53;60.66;100552.91;5107602;27;99848;-71
2022/08/19 03:21:05;;;;;;;24.73;18.67;;;;;;;26.65;60.78;100547.25;5113237;27;96936;-70
2022/08/19 03:23:32;;;;;;;21.17;16.67;;;;;;;26.84;60.23;100533.41;5114550;27;97594;-70
2022/08/19 03:25:58;;;;;;;18.63;15.23;;;;;;;26.71;59.96;100525.75;5112725;27;102066;-71
2022/08/19 03:28:24;;;;;;;20.38;17.05;;;;;;;26.57;60.74;100529.94;5111233;27;101281;-71
2022/08/19 03:30:59;;;;;;;20.48;17.60;;;;;;;26.53;60.74;100535.81;5114115;27;97318;-70
2022/08/19 03:33:27;;;;;;;25.17;20.17;;;;;;;26.56;60.83;100533.66;5111800;27;96897;-70
2022/08/19 03:36:06;;;;;;;24.50;18.00;;;;;;;26.55;61.11;100522.97;5112977;27;99176;-71
2022/08/19 03:38:34;;;;;;;18.35;15.13;;;;;;;26.75;60.69;100524.41;5111704;27;98807;-72
2022/08/19 03:41:06;;;;;;;22.42;16.05;;;;;;;26.72;60.69;100519.28;5112554;27;97137;-70
2022/08/19 03:43:33;;;;;;;15.05;12.60;;;;;;;26.47;61.04;100518.34;5114063;27;96805;-70
2022/08/19 03:46:04;;;;;;;16.55;12.68;;;;;;;26.62;61.12;100521.28;5112500;27;98936;-71
2022/08/19 03:48:31;;;;;;;16.02;12.68;;;;;;;26.72;60.69;100524.72;5111564;27;98946;-71
2022/08/19 03:50:58;;;;;;;13.15;10.98;;;;;;;26.54;61.02;100532.94;5113754;27;96726;-70
2022/08/19 03:53:27;;;;;;;15.32;12.40;;;;;;;26.49;60.60;100532.59;5113813;27;98460;-71
2022/08/19 03:55:54;;;;;;;13.40;12.00;;;;;;;26.53;60.80;100535.81;5111304;27;99184;-73
2022/08/19 03:58:20;;;;;;;13.25;11.65;;;;;;;26.17;61.52;100535.09;5112217;27;99488;-72
2022/08/19 04:00:47;;;;;;;15.00;11.50;;;;;;;26.30;61.53;100535.53;5111071;27;96797;-72
2022/08/19 04:03:13;;;;;;;12.38;11.02;;;;;;;25.95;62.17;100528.31;5114319;27;97112;-71
2022/08/19 04:05:39;;;;;;;12.65;11.45;;;;;;;26.24;61.80;100527.16;5110860;27;97264;-72
2022/08/19 04:08:06;;;;;;;12.48;11.20;;;;;;;26.14;62.11;100521.84;5111344;27;98912;-70
2022/08/19 04:10:36;;;;;;;14.00;12.05;;;;;;;26.01;62.60;100530.41;5113185;27;98435;-70
2022/08/19 04:13:03;;;;;;;13.60;11.45;;;;;;;26.24;61.72;100524.47;5115191;27;96867;-71
2022/08/19 04:15:33;;;;;;;13.70;11.52;;;;;;;26.27;61.80;100522.31;5109159;27;102337;-71
2022/08/19 04:17:59;;;;;;;14.40;12.60;;;;;;;26.28;61.20;100526.72;5108205;27;98961;-72
2022/08/19 04:20:25;;;;;;;13.10;11.75;;;;;;;26.24;61.80;100528.06;5106372;27;96863;-71
2022/08/19 04:22:52;;;;;;;13.05;11.18;;;;;;;26.34;61.37;100538.75;5113868;27;97210;-70
2022/08/19 04:25:18;;;;;;;12.63;11.43;;;;;;;26.45;61.02;100544.75;5112930;27;99684;-72
2022/08/19 04:27:46;;;;;;;16.15;11.60;;;;;;;26.64;60.51;100548.25;5107462;27;99364;-71
2022/08/19 04:30:13;;;;;;;12.93;11.25;;;;;;;26.32;60.69;100554.34;5112162;27;97224;-70
2022/08/19 04:32:40;;;;;;;12.55;11.23;;;;;;;26.63;60.42;100562.81;5112914;27;98072;-70
2022/08/19 04:35:08;;;;;;;13.63;11.48;;;;;;;26.75;59.72;100556.06;5111269;27;99315;-70
2022/08/19 04:37:34;;;;;;;16.58;11.45;;;;;;;26.95;59.35;100547.56;5106940;27;99122;-71
2022/08/19 04:42:46;;;;;;;15.02;10.80;;;;;;;26.67;59.50;100537.06;5109830;27;98640;-70
2022/08/19 04:45:14;;;;;;;14.43;10.48;;;;;;;26.59;59.65;100541.44;5112468;27;98983;-71
2022/08/19 04:47:43;;;;;;;13.43;10.68;;;;;;;26.80;59.50;100548.28;5107452;27;99430;-71
2022/08/19 04:50:11;;;;;;;11.90;10.70;;;;;;;26.90;59.61;100544.50;5111599;27;97239;-71
2022/08/19 04:52:42;;;;;;;15.13;11.10;;;;;;;27.02;58.94;100552.31;5111561;27;96813;-71
2022/08/19 04:55:09;;;;;;;11.77;10.43;;;;;;;26.98;58.38;100552.63;5112630;27;98197;-70
2022/08/19 04:57:39;;;;;;;11.98;10.73;;;;;;;26.94;58.25;100555.84;5107069;27;98865;-70
2022/08/19 05:00:09;;;;;;;16.80;11.43;;;;;;;27.05;58.30;100552.81;5112190;27;96840;-71
2022/08/19 05:02:36;;;;;;;12.13;10.60;;;;;;;27.04;58.40;100553.84;5113392;27;97671;-71
2022/08/19 05:05:03;;;;;;;13.02;11.00;;;;;;;26.98;58.53;100545.53;5111316;27;99532;-71
2022/08/19 05:07:30;;;;;;;13.02;11.25;;;;;;;26.69;58.84;100544.03;5109599;27;99376;-70
2022/08/19 05:09:57;;;;;;;13.05;11.20;;;;;;;26.91;58.63;100545.34;5112926;27;97180;-72
2022/08/19 05:12:23;;;;;;;14.00;10.98;;;;;;;26.97;58.63;100533.84;5111355;27;96954;-71
2022/08/19 05:14:51;;;;;;;11.50;10.38;;;;;;;27.08;58.03;100529.94;5112838;27;100897;-71
2022/08/19 05:17:19;;;;;;;11.27;10.15;;;;;;;26.95;58.35;100536.69;5107990;27;98908;-72
2022/08/19 05:22:35;;;;;;;11.02;9.93;;;;;;;27.45;57.49;100527.63;5111779;27;96948;-71
2022/08/19 05:25:05;;;;;;;11.07;10.07;;;;;;;27.73;57.01;100522.75;5109510;27;98780;-71
2022/08/19 05:27:31;;;;;;;11.82;10.52;;;;;;;27.87;56.10;100522.06;5104785;27;101452;-71
2022/08/19 05:29:58;;;;;;;15.55;11.32;;;;;;;28.10;55.52;100525.75;5111488;27;96956;-72
2022/08/19 05:32:26;;;;;;;11.30;10.10;;;;;;;28.02;55.50;100528.53;5112234;27;97038;-70
2022/08/19 05:34:53;;;;;;;11.50;10.30;;;;;;;27.99;55.08;100520.69;5109725;27;98999;-70
2022/08/19 05:37:20;;;;;;;11.93;10.60;;;;;;;28.15;55.28;100514.44;5107894;27;99213;-70
2022/08/19 05:39:46;;;;;;;12.70;9.82;;;;;;;28.30;54.41;100522.69;5110667;27;98572;-71
2022/08/19 05:42:13;;;;;;;12.45;10.52;;;;;;;28.09;54.50;100520.53;5108370;27;96826;-71
2022/08/19 05:44:43;;;;;;;14.85;10.00;;;;;;;28.10;54.33;100514.91;5109718;27;100320;-71
2022/08/19 05:47:11;;;;;;;12.02;10.02;;;;;;;28.28;54.27;100520.16;5109172;27;98109;-72
2022/08/19 05:49:39;;;;;;;11.38;10.15;;;;;;;27.99;54.63;100517.97;5110075;27;98991;-71
2022/08/19 05:52:08;;;;;;;12.57;10.93;;;;;;;28.12;54.60;100509.31;5108528;27;96806;-71
2022/08/19 05:54:39;;;;;;;12.38;10.98;;;;;;;28.42;54.00;100524.03;5109501;27;99123;-71
2022/08/19 05:57:06;;;;;;;11.90;10.20;;;;;;;28.38;53.99;100518.09;5102338;27;102033;-70
2022/08/19 05:59:36;;;;;;;11.68;9.73;;;;;;;28.70;53.25;100524.41;5109935;27;96813;-70
2022/08/19 06:02:04;;;;;;;11.02;9.48;;;;;;;28.46;53.86;100526.22;5110123;27;97278;-70
2022/08/19 06:04:30;;;;;;;16.75;10.07;;;;;;;28.79;53.06;100540.56;5109848;27;98984;-71
2022/08/19 06:06:58;;;;;;;10.73;9.70;;;;;;;28.78;52.76;100543.47;5105658;27;98705;-70
2022/08/19 06:09:25;;;;;;;11.93;10.73;;;;;;;28.75;52.81;100539.22;5110966;27;98564;-71
2022/08/19 06:11:54;;;;;;;14.45;10.50;;;;;;;28.59;53.20;100550.13;5111931;27;97144;-72
2022/08/19 06:14:23;;;;;;;12.88;9.73;;;;;;;28.82;52.47;100555.66;5111635;27;99262;-72
2022/08/19 06:16:52;;;;;;;12.07;9.88;;;;;;;28.63;53.23;100551.47;5105907;27;101766;-73
2022/08/19 06:19:23;;;;;;;11.18;10.07;;;;;;;28.91;52.91;100543.72;5105809;27;96790;-72
2022/08/19 06:21:53;;;;;;;12.52;10.10;;;;;;;28.82;53.20;100529.31;5107321;27;97769;-72
2022/08/19 06:24:23;;;;;;;13.13;10.57;;;;;;;28.86;53.16;100536.13;5109212;27;98223;-72
2022/08/19 06:26:52;;;;;;;11.50;10.20;;;;;;;29.01;52.54;100538.09;5108823;27;101143;-72
2022/08/19 06:29:20;;;;;;;10.90;9.80;;;;;;;29.00;52.24;100536.38;5110592;27;97325;-71
2022/08/19 06:31:49;;;;;;;14.27;10.48;;;;;;;29.04;52.05;100545.88;5113108;27;96932;-72
2022/08/19 06:34:16;;;;;;;14.65;10.48;;;;;;;29.02;52.39;100545.19;5115215;27;99127;-72
2022/08/19 06:36:44;;;;;;;11.77;10.57;;;;;;;28.96;52.41;100540.47;5110814;27;101779;-72
2022/08/19 06:39:14;;;;;;;14.05;10.45;;;;;;;28.83;52.80;100543.75;5101853;27;97667;-72
2022/08/19 06:41:44;;;;;;;13.45;10.73;;;;;;;28.97;52.15;100547.63;5108744;27;97308;-72
2022/08/19 06:44:11;;;;;;;16.27;11.63;;;;;;;29.23;51.94;100553.59;5113130;27;100063;-70
2022/08/19 06:46:38;;;;;;;15.48;10.85;;;;;;;29.08;52.10;100553.50;5105497;27;98933;-71
2022/08/19 06:49:05;;;;;;;15.65;11.38;;;;;;;29.08;52.17;100561.66;5110752;27;96770;-72
2022/08/19 06:51:34;;;;;;;15.52;11.15;;;;;;;29.19;51.94;100564.00;5113602;27;98311;-70
2022/08/19 06:54:01;;;;;;;14.55;11.60;;;;;;;29.14;51.91;100576.44;5113380;27;98159;-70
2022/08/19 06:56:33;;;;;;;17.10;12.10;;;;;;;28.54;53.32;100568.84;5110703;27;99442;-70
2022/08/19 06:59:01;;;;;;;13.20;11.57;;;;;;;28.99;52.57;100580.94;5111240;27;97566;-72
2022/08/19 07:01:27;;;;;;;12.45;11.15;;;;;;;28.65;53.41;100579.34;5108280;27;97139;-69
2022/08/19 07:03:57;;;;;;;14.55;11.15;;;;;;;28.61;53.72;100597.03;5111805;27;97720;-69
2022/08/19 07:06:23;;;;;;;17.33;12.50;;;;;;;28.53;53.48;100603.31;5108611;27;97978;-69
2022/08/19 07:08:51;;;;;;;15.38;11.52;;;;;;;28.55;53.19;100595.81;5114686;27;97573;-69
2022/08/19 07:11:20;;;;;;;17.05;12.50;;;;;;;28.57;53.70;100590.22;5105833;27;99289;-68
2022/08/19 07:13:48;;;;;;;12.82;11.43;;;;;;;28.85;53.49;100588.81;5109652;27;99393;-68
2022/08/19 07:16:19;;;;;;;16.52;12.13;;;;;;;28.92;52.92;100589.78;5105600;27;98941;-69
2022/08/19 07:18:45;;;;;;;15.05;12.50;;;;;;;29.06;52.45;100577.31;5108855;27;96781;-70
2022/08/19 07:21:14;;;;;;;14.00;12.38;;;;;;;29.13;52.87;100575.59;5106942;27;96834;-69
2022/08/19 07:23:41;;;;;;;14.32;12.93;;;;;;;29.27;51.88;100572.13;5110643;27;101904;-69
2022/08/19 07:26:09;;;;;;;14.45;12.82;;;;;;;29.34;51.86;100571.44;5110453;27;98801;-69
2022/08/19 07:28:38;;;;;;;14.40;12.07;;;;;;;29.41;51.47;100567.78;5102514;27;98572;-68
2022/08/19 07:31:06;;;;;;;14.43;12.73;;;;;;;29.40;51.84;100577.00;5113556;27;97431;-69
2022/08/19 07:33:36;;;;;;;15.45;12.18;;;;;;;29.44;51.18;100578.31;5109712;27;99410;-70
2022/08/19 07:36:13;;;;;;;13.85;12.45;;;;;;;29.25;51.68;100595.94;5106378;27;98925;-69
2022/08/19 07:38:42;;;;;;;14.68;13.13;;;;;;;29.15;51.82;100597.16;5112563;27;96848;-69
2022/08/19 07:41:11;;;;;;;14.05;12.55;;;;;;;29.36;51.33;100597.41;5113105;27;97293;-69
2022/08/19 07:43:38;;;;;;;17.23;13.05;;;;;;;29.23;51.83;100602.56;5114414;27;99338;-68
2022/08/19 07:46:05;;;;;;;15.73;12.43;;;;;;;29.45;51.58;100618.13;5109958;27;97679;-68
2022/08/19 07:48:32;;;;;;;13.95;12.38;;;;;;;29.46;51.55;100611.66;5111177;27;97102;-68
2022/08/19 07:51:02;;;;;;;16.50;14.77;;;;;;;29.36;51.66;100616.47;5110323;27;97065;-68
2022/08/19 07:53:30;;;;;;;15.57;13.45;;;;;;;28.99;52.60;100610.84;5108270;27;99072;-68
2022/08/19 07:55:59;;;;;;;14.98;13.10;;;;;;;29.24;52.28;100609.69;5106600;27;98743;-69
2022/08/19 07:58:27;;;;;;;15.73;14.05;;;;;;;29.42;51.64;100610.31;5107023;27;97571;-68
2022/08/19 08:00:54;;;;;;;15.40;13.90;;;;;;;28.99;52.62;100619.00;5108542;27;96920;-68
2022/08/19 08:09:10;;;;;;;15.75;13.68;;;;;;;29.19;52.71;100623.84;5097157;27;99335;-69
2022/08/19 08:09:17;;;;;;;19.65;15.35;;;;;;;29.24;52.54;100623.31;5109769;27;98674;-70
2022/08/19 08:11:48;;;;;;;15.90;14.27;;;;;;;28.91;53.00;100626.19;5109068;27;98772;-68
2022/08/19 08:14:16;;;;;;;16.15;14.40;;;;;;;28.63;54.04;100638.44;5109631;27;99336;-68
2022/08/19 08:16:43;;;;;;;19.27;13.80;;;;;;;28.78;54.06;100641.34;5111038;27;98962;-68
2022/08/19 08:19:10;;;;;;;15.77;13.98;;;;;;;28.63;54.79;100645.75;5110394;27;97273;-68
2022/08/19 08:21:38;;;;;;;16.85;14.90;;;;;;;28.62;54.61;100647.63;5111128;27;96957;-69
2022/08/19 08:24:05;;;;;;;15.50;13.88;;;;;;;28.55;54.36;100650.19;5111659;27;98517;-69
2022/08/19 08:26:31;;;;;;;15.95;14.20;;;;;;;28.40;54.93;100648.38;5106700;27;99004;-69
2022/08/19 08:28:58;;;;;;;17.20;14.10;;;;;;;28.39;55.10;100654.81;5110139;27;97330;-69
2022/08/19 08:31:24;;;;;;;16.95;15.20;;;;;;;28.57;54.72;100652.75;5108412;27;97637;-68
2022/08/19 08:33:51;;;;;;;19.90;13.93;;;;;;;28.79;53.93;100656.63;5111472;27;98894;-68
2022/08/19 08:36:18;;;;;;;17.35;14.23;;;;;;;29.16;52.99;100656.00;5107505;27;99721;-68
2022/08/19 08:38:46;;;;;;;17.48;15.27;;;;;;;28.97;53.74;100656.41;5109498;27;96786;-69
2022/08/19 08:41:21;;;;;;;19.77;14.50;;;;;;;28.95;53.54;100662.00;5109459;27;96954;-70
2022/08/19 08:43:51;;;;;;;14.85;13.20;;;;;;;28.74;54.59;100656.28;5107642;27;99212;-69
2022/08/19 08:46:23;;;;;;;15.68;13.93;;;;;;;28.48;55.17;100656.50;5111299;27;99242;-69
2022/08/19 08:48:54;;;;;;;15.23;13.63;;;;;;;28.44;55.66;100649.69;5112837;27;96742;-68
2022/08/19 08:51:26;;;;;;;16.27;14.63;;;;;;;28.56;55.23;100659.19;5110251;27;96953;-69
2022/08/19 08:53:55;;;;;;;16.08;14.13;;;;;;;29.01;53.79;100669.50;5103379;27;98569;-69
2022/08/19 08:56:22;;;;;;;15.65;13.55;;;;;;;29.04;53.71;100666.41;5110762;27;98969;-69
2022/08/19 08:58:57;;;;;;;15.32;13.77;;;;;;;29.03;53.49;100656.56;5107959;27;97533;-69
2022/08/19 09:01:24;;;;;;;14.75;13.23;;;;;;;28.78;54.39;100669.38;5111040;27;97298;-68
2022/08/19 09:03:50;;;;;;;16.25;14.00;;;;;;;28.44;55.34;100666.00;5107707;27;98986;-68
2022/08/19 09:06:26;;;;;;;15.25;13.65;;;;;;;28.54;54.95;100667.53;5106975;27;98817;-69
2022/08/19 09:09:03;;;;;;;15.55;13.95;;;;;;;28.49;55.16;100675.34;5108103;27;97623;-69
2022/08/19 09:11:42;;;;;;;16.15;14.23;;;;;;;28.56;55.51;100680.94;5105642;27;98927;-69
2022/08/19 09:14:16;;;;;;;16.88;13.55;;;;;;;28.49;55.17;100674.50;5109867;27;98969;-69
2022/08/19 09:16:43;;;;;;;15.43;13.80;;;;;;;28.58;55.01;100678.06;5107295;27;98939;-69
2022/08/19 09:19:10;;;;;;;18.08;13.70;;;;;;;28.81;54.31;100679.09;5105568;27;97428;-70
2022/08/19 09:21:38;;;;;;;16.58;13.05;;;;;;;28.89;53.98;100669.00;5110969;27;96970;-70
2022/08/19 09:24:07;;;;;;;15.20;13.30;;;;;;;29.18;53.66;100656.66;5110110;27;98123;-69
2022/08/19 09:26:34;;;;;;;17.45;14.02;;;;;;;29.67;52.09;100655.41;5109814;27;97639;-69
2022/08/19 09:29:01;;;;;;;14.32;12.82;;;;;;;29.52;52.55;100654.50;5102752;27;96953;-69
2022/08/19 09:31:30;;;;;;;13.25;11.95;;;;;;;29.89;51.65;100647.44;5112085;27;96902;-70
2022/08/19 09:33:57;;;;;;;14.38;12.93;;;;;;;30.63;50.08;100648.53;5108057;27;99455;-69
2022/08/19 09:36:26;;;;;;;17.10;13.10;;;;;;;30.92;49.49;100645.81;5111449;27;98165;-68
2022/08/19 09:38:53;;;;;;;13.30;11.90;;;;;;;30.77;49.18;100650.44;5110846;27;96835;-69
2022/08/19 09:41:23;;;;;;;14.50;11.82;;;;;;;30.36;50.06;100645.34;5107370;27;98362;-68
2022/08/19 09:43:52;;;;;;;15.40;12.43;;;;;;;30.33;49.84;100648.44;5109093;27;99519;-68
2022/08/19 09:46:20;;;;;;;16.60;12.15;;;;;;;30.75;48.95;100644.31;5110543;27;98877;-69
2022/08/19 09:48:48;;;;;;;13.55;11.90;;;;;;;31.06;47.91;100639.53;5104129;27;97707;-68
2022/08/19 09:51:21;;;;;;;14.35;12.68;;;;;;;30.91;48.15;100641.41;5104340;27;97369;-68
2022/08/19 09:53:50;;;;;;;12.98;11.57;;;;;;;30.90;48.10;100631.53;5108329;27;99422;-69
2022/08/19 09:56:18;;;;;;;13.75;12.45;;;;;;;29.99;50.36;100643.47;5106001;27;99197;-69
2022/08/19 09:58:46;;;;;;;15.68;14.07;;;;;;;29.65;52.01;100643.88;5105331;27;98588;-69
2022/08/19 10:01:18;;;;;;;17.85;12.88;;;;;;;29.57;52.14;100643.91;5100634;27;96967;-69
2022/08/19 10:03:49;;;;;;;14.07;12.70;;;;;;;29.52;52.32;100653.66;5111253;27;101686;-69
2022/08/19 10:06:15;;;;;;;13.70;12.30;;;;;;;29.52;51.93;100645.47;5113827;27;100413;-69
2022/08/19 10:08:42;;;;;;;12.38;10.90;;;;;;;29.80;51.65;100648.53;5113428;27;97169;-70
2022/08/19 10:11:09;;;;;;;17.52;12.95;;;;;;;29.92;51.04;100647.13;5106563;27;98451;-68
2022/08/19 10:13:36;;;;;;;13.55;12.13;;;;;;;30.20;50.26;100650.09;5114452;27;98974;-69
2022/08/19 10:16:07;;;;;;;13.90;12.07;;;;;;;29.67;51.56;100649.09;5108137;27;99604;-69
2022/08/19 10:18:34;;;;;;;14.55;11.93;;;;;;;30.03;51.25;100654.84;5108549;27;97376;-69
2022/08/19 10:21:08;;;;;;;13.65;12.25;;;;;;;29.73;51.31;100642.13;5111808;27;97895;-69
2022/08/19 10:23:36;;;;;;;13.15;11.75;;;;;;;29.55;51.74;100643.22;5115574;27;99263;-69
2022/08/19 10:26:05;;;;;;;13.75;12.32;;;;;;;29.60;51.69;100645.44;5115700;27;99289;-68
2022/08/19 10:28:31;;;;;;;13.48;11.85;;;;;;;29.59;52.14;100636.41;5111496;27;97192;-69
2022/08/19 10:30:58;;;;;;;16.77;12.63;;;;;;;29.44;52.36;100640.91;5113182;27;98461;-68
2022/08/19 10:33:27;;;;;;;14.85;11.93;;;;;;;29.22;52.99;100638.94;5111661;27;98897;-70
2022/08/19 10:36:00;;;;;;;13.45;11.45;;;;;;;29.26;53.00;100632.16;5110997;27;98031;-69
2022/08/19 10:38:28;;;;;;;12.95;11.52;;;;;;;28.96;54.13;100638.38;5106808;27;97506;-70
2022/08/19 10:40:58;;;;;;;12.35;11.25;;;;;;;28.79;54.52;100630.31;5114186;27;97193;-70
2022/08/19 10:43:24;;;;;;;14.27;11.98;;;;;;;28.43;55.29;100637.13;5109954;27;98423;-70
2022/08/19 10:45:56;;;;;;;13.05;11.65;;;;;;;28.55;54.90;100628.44;5111089;27;101411;-69
2022/08/19 10:48:23;;;;;;;13.43;11.23;;;;;;;28.18;56.14;100633.59;5111539;27;97369;-69
2022/08/19 10:53:35;;;;;;;14.38;12.35;;;;;;;28.16;56.71;100640.25;5108593;27;97155;-69
2022/08/19 10:58:45;;;;;;;14.82;12.45;;;;;;;28.31;55.56;100643.94;5111768;27;96977;-69
2022/08/19 11:01:12;;;;;;;14.60;12.13;;;;;;;28.61;54.97;100645.97;5113472;27;97313;-68
2022/08/19 11:03:38;;;;;;;18.77;13.30;;;;;;;28.41;55.59;100640.03;5109158;27;97800;-70
2022/08/19 11:06:08;;;;;;;13.15;11.85;;;;;;;28.73;54.77;100633.69;5109104;27;101458;-69
2022/08/19 11:08:37;;;;;;;15.48;12.38;;;;;;;28.42;55.44;100638.19;5112330;27;97124;-70
2022/08/19 11:11:06;;;;;;;14.27;11.50;;;;;;;28.61;54.87;100653.25;5113041;27;98848;-69
2022/08/19 11:13:37;;;;;;;16.88;13.30;;;;;;;28.58;55.22;100657.16;5111267;27;99278;-69
2022/08/19 11:16:07;;;;;;;14.93;11.90;;;;;;;28.84;54.20;100652.38;5111163;27;99261;-69
2022/08/19 11:18:35;;;;;;;13.25;11.85;;;;;;;29.05;53.81;100656.38;5108226;27;97254;-69
2022/08/19 11:21:12;;;;;;;13.38;11.82;;;;;;;29.19;52.93;100644.78;5111147;27;97411;-69
2022/08/19 11:23:52;;;;;;;12.68;11.20;;;;;;;29.35;52.83;100655.59;5111576;27;98829;-69
2022/08/19 11:26:20;;;;;;;18.33;11.18;;;;;;;29.16;52.64;100654.13;5111276;27;98310;-69
2022/08/19 11:28:47;;;;;;;15.93;11.40;;;;;;;28.89;53.05;100666.28;5112116;27;98596;-69
2022/08/19 11:31:16;;;;;;;12.45;10.60;;;;;;;29.41;52.34;100654.88;5115041;27;97609;-69